Time;durP1;ratioP1;P1;durP2;ratioP2;P2;SDS_P1;SDS_P2;PMS_P1;PMS_P2;Temp;Humidity;BMP_temperature;BMP_pressure;BME280_temperature;BME280_humidity;BME280_pressure;Samples;Min_cycle;Max_cycle;Signal;HPM_P1;HPM_P2
2021/09/25 00:09:22;;;;;;;4.90;1.50;;;16.30;99.90;;;;;;6731260;88;20264;-75
2021/09/25 00:19:23;;;;;;;1.90;1.20;;;16.00;99.90;;;;;;6732031;88;20712;-75
2021/09/25 00:29:24;;;;;;;2.03;1.20;;;15.80;99.90;;;;;;6731949;88;20322;-75
2021/09/25 00:39:25;;;;;;;4.20;1.48;;;15.80;99.90;;;;;;6731421;88;20586;-76
2021/09/25 00:49:26;;;;;;;2.65;1.42;;;15.60;99.90;;;;;;6744557;88;20369;-76
2021/09/25 00:59:27;;;;;;;2.70;1.40;;;15.30;99.90;;;;;;6739831;88;20247;-76
2021/09/25 01:09:28;;;;;;;2.47;1.48;;;15.10;99.90;;;;;;6743833;88;20934;-76
2021/09/25 01:19:28;;;;;;;2.17;1.52;;;15.00;99.90;;;;;;6742447;88;20254;-76
2021/09/25 01:29:30;;;;;;;3.15;1.30;;;14.60;99.90;;;;;;6742744;88;20232;-76
2021/09/25 01:39:31;;;;;;;2.40;1.40;;;14.50;99.90;;;;;;6744191;87;20176;-75
2021/09/25 01:49:31;;;;;;;1.92;1.27;;;14.30;99.90;;;;;;6741437;88;20632;-76
2021/09/25 01:59:32;;;;;;;3.08;1.50;;;14.30;99.90;;;;;;6748627;87;20207;-75
2021/09/25 02:09:32;;;;;;;2.80;1.42;;;14.20;99.90;;;;;;6741691;87;20609;-76
2021/09/25 02:19:33;;;;;;;2.72;1.58;;;14.20;99.90;;;;;;6745366;87;20196;-75
2021/09/25 02:29:34;;;;;;;3.17;1.70;;;14.20;99.90;;;;;;6742884;88;20225;-75
2021/09/25 02:39:35;;;;;;;3.53;1.60;;;14.00;99.90;;;;;;6745725;87;20510;-75
2021/09/25 02:49:35;;;;;;;3.33;1.80;;;13.80;99.90;;;;;;6742955;87;20695;-76
2021/09/25 02:59:36;;;;;;;5.62;2.30;;;13.70;99.90;;;;;;6742073;87;20265;-75
2021/09/25 03:09:37;;;;;;;3.78;2.10;;;13.90;99.90;;;;;;6741354;87;20305;-76
2021/09/25 03:19:37;;;;;;;4.43;2.15;;;13.90;99.90;;;;;;6740033;88;20711;-76
2021/09/25 03:29:38;;;;;;;2.80;2.10;;;13.60;99.90;;;;;;6741515;87;20281;-76
2021/09/25 03:39:38;;;;;;;3.50;2.17;;;13.50;99.90;;;;;;6746287;87;20180;-76
2021/09/25 03:49:41;;;;;;;4.37;2.62;;;13.30;99.90;;;;;;6742855;88;20195;-75
2021/09/25 03:59:41;;;;;;;4.30;2.40;;;13.40;99.90;;;;;;6742025;87;20213;-76
2021/09/25 04:09:42;;;;;;;5.78;3.45;;;13.30;99.90;;;;;;6745602;87;20664;-76
2021/09/25 04:19:42;;;;;;;6.35;3.67;;;13.30;99.90;;;;;;6744757;87;20204;-75
2021/09/25 04:29:43;;;;;;;5.47;3.13;;;13.30;99.90;;;;;;6745436;87;20194;-76
2021/09/25 04:39:43;;;;;;;6.25;3.22;;;13.30;99.90;;;;;;6743183;87;20675;-76
2021/09/25 04:49:44;;;;;;;5.70;3.50;;;13.20;99.90;;;;;;6752158;87;20337;-75
2021/09/25 04:59:44;;;;;;;6.85;3.45;;;13.30;99.90;;;;;;6744219;88;20277;-75
2021/09/25 05:09:45;;;;;;;8.93;3.97;;;13.20;99.90;;;;;;6742000;87;20188;-77
2021/09/25 05:19:47;;;;;;;6.03;3.50;;;13.10;99.90;;;;;;6749356;87;20243;-77
2021/09/25 05:30:29;;;;;;;8.85;3.80;;;13.00;99.90;;;;;;6758619;77;20252;-76
2021/09/25 05:40:30;;;;;;;8.18;3.97;;;13.00;99.90;;;;;;6735890;88;20196;-77
2021/09/25 05:50:31;;;;;;;7.80;4.00;;;13.10;99.90;;;;;;6739239;88;20652;-77
2021/09/25 06:00:31;;;;;;;10.10;4.62;;;13.20;99.90;;;;;;6738488;88;20201;-77
2021/09/25 06:10:32;;;;;;;9.43;4.37;;;13.30;99.90;;;;;;6738954;88;20184;-76
2021/09/25 06:20:33;;;;;;;8.13;4.03;;;13.40;99.90;;;;;;6736186;88;20184;-76
2021/09/25 06:30:40;;;;;;;6.53;4.05;;;13.50;99.90;;;;;;6738430;88;21432;-77
2021/09/25 06:40:40;;;;;;;7.45;4.20;;;13.50;99.90;;;;;;6732466;88;20226;-77
2021/09/25 06:50:41;;;;;;;6.65;3.87;;;13.80;99.90;;;;;;6729734;88;20234;-76
2021/09/25 07:00:46;;;;;;;6.57;3.67;;;14.20;99.90;;;;;;6727561;88;20323;-78
2021/09/25 07:10:48;;;;;;;5.30;3.30;;;14.60;99.90;;;;;;6746459;88;20506;-76
2021/09/25 07:20:48;;;;;;;6.15;3.53;;;15.20;99.90;;;;;;6732276;88;20205;-73
2021/09/25 07:30:49;;;;;;;5.55;2.95;;;15.80;99.90;;;;;;6736170;88;20196;-74
2021/09/25 07:40:52;;;;;;;5.35;3.37;;;16.30;99.90;;;;;;6731669;88;20237;-73
2021/09/25 07:50:53;;;;;;;9.35;3.42;;;16.70;99.90;;;;;;6728012;88;20182;-76
2021/09/25 08:00:53;;;;;;;4.70;3.25;;;17.40;99.90;;;;;;6748068;88;20258;-79
2021/09/25 08:10:54;;;;;;;5.15;2.87;;;18.10;99.90;;;;;;6766740;87;20153;-80
2021/09/25 08:20:55;;;;;;;4.12;2.80;;;18.50;99.90;;;;;;6767612;87;20241;-81
2021/09/25 08:30:56;;;;;;;4.62;2.60;;;19.60;99.90;;;;;;6771664;87;20182;-81
2021/09/25 08:40:59;;;;;;;5.57;2.80;;;20.00;99.90;;;;;;6766498;88;20216;-80
2021/09/25 09:01:03;;;;;;;4.43;2.85;;;20.00;99.90;;;;;;6743174;88;20185;-82
2021/09/25 09:11:06;;;;;;;3.70;2.30;;;20.90;99.90;;;;;;6750825;88;20192;-82
2021/09/25 09:21:27;;;;;;;3.42;2.40;;;21.70;99.90;;;;;;6748874;88;20190;-79
2021/09/25 09:31:28;;;;;;;5.00;2.40;;;21.40;99.90;;;;;;6747821;88;21074;-80
2021/09/25 09:41:34;;;;;;;5.83;2.40;;;21.10;99.90;;;;;;6745793;88;20235;-79
2021/09/25 09:51:40;;;;;;;4.43;2.28;;;21.90;99.90;;;;;;6749250;88;20165;-78
2021/09/25 10:01:42;;;;;;;4.25;2.20;;;22.70;99.90;;;;;;6748510;88;20195;-78
2021/09/25 10:11:45;;;;;;;3.80;2.17;;;23.50;99.90;;;;;;6742087;88;20241;-80
2021/09/25 10:21:47;;;;;;;4.60;1.97;;;23.60;99.90;;;;;;6738283;88;20210;-79
2021/09/25 10:31:49;;;;;;;2.97;1.90;;;24.10;99.90;;;;;;6732528;88;20177;-79
2021/09/25 10:42:09;;;;;;;2.83;1.85;;;24.40;99.90;;;;;;6740766;88;20258;-80
2021/09/25 10:52:11;;;;;;;4.25;2.08;;;24.90;99.90;;;;;;6752511;88;20177;-80
2021/09/25 11:02:42;;;;;;;2.78;2.10;;;24.40;99.90;;;;;;6731620;88;20322;-73
2021/09/25 11:12:45;;;;;;;3.25;1.90;;;25.60;99.90;;;;;;6724447;88;20221;-74
2021/09/25 11:22:47;;;;;;;3.08;2.30;;;26.20;99.90;;;;;;6721666;88;20186;-74
2021/09/25 11:32:54;;;;;;;3.37;1.98;;;25.40;99.90;;;;;;6753917;76;20177;-74
2021/09/25 11:43:03;;;;;;;2.87;1.77;;;27.70;97.60;;;;;;6750964;88;20173;-77
2021/09/25 11:53:13;;;;;;;2.67;1.70;;;28.20;96.30;;;;;;6739276;88;20583;-74
2021/09/25 12:03:14;;;;;;;3.20;1.85;;;27.80;94.80;;;;;;6740242;88;20249;-74
2021/09/25 12:13:20;;;;;;;3.40;1.70;;;27.30;96.20;;;;;;6734034;88;20209;-73
2021/09/25 12:23:29;;;;;;;3.75;1.73;;;26.80;96.40;;;;;;6734281;88;20822;-73
2021/09/25 12:33:30;;;;;;;4.10;1.70;;;26.70;97.40;;;;;;6741731;88;20402;-72
2021/09/25 12:43:43;;;;;;;5.07;1.67;;;28.20;95.90;;;;;;6735184;88;20605;-75
2021/09/25 12:53:52;;;;;;;2.97;1.92;;;27.90;95.30;;;;;;6735328;88;20245;-72
2021/09/25 13:03:52;;;;;;;3.20;1.60;;;27.90;95.70;;;;;;6734635;88;20311;-73
2021/09/25 13:14:08;;;;;;;2.90;1.90;;;28.10;95.20;;;;;;6733614;88;20215;-74
2021/09/25 13:24:09;;;;;;;4.70;2.00;;;28.10;94.20;;;;;;6732699;88;20279;-76
2021/09/25 13:34:09;;;;;;;2.47;1.77;;;27.30;94.70;;;;;;6737529;88;20639;-73
2021/09/25 13:44:10;;;;;;;3.67;1.70;;;28.00;94.90;;;;;;6736201;88;20613;-74
2021/09/25 13:54:10;;;;;;;2.83;2.10;;;28.60;94.10;;;;;;6737255;88;20547;-75
2021/09/25 14:04:11;;;;;;;3.25;2.00;;;29.70;93.00;;;;;;6734942;88;20291;-74
2021/09/25 14:14:11;;;;;;;3.55;1.77;;;28.40;93.20;;;;;;6735408;88;20192;-74
2021/09/25 14:24:12;;;;;;;4.87;2.08;;;28.70;93.90;;;;;;6736618;88;20222;-74
2021/09/25 14:34:12;;;;;;;3.72;1.70;;;27.90;94.30;;;;;;6734146;87;20186;-74
2021/09/25 14:44:13;;;;;;;4.55;2.03;;;27.90;93.30;;;;;;6734390;88;20203;-73
2021/09/25 14:54:14;;;;;;;3.03;1.67;;;27.80;91.00;;;;;;6734473;88;20220;-74
2021/09/25 15:04:14;;;;;;;5.05;1.85;;;27.20;90.60;;;;;;6735848;88;20204;-75
2021/09/25 15:14:15;;;;;;;3.22;1.85;;;26.60;91.00;;;;;;6738669;87;20196;-73
2021/09/25 15:24:15;;;;;;;3.33;1.58;;;26.70;92.10;;;;;;6733814;87;20394;-73
2021/09/25 15:34:16;;;;;;;2.72;1.75;;;26.80;92.10;;;;;;6738386;87;20544;-73
2021/09/25 15:44:22;;;;;;;3.47;1.93;;;26.10;92.90;;;;;;6738112;88;20224;-73
2021/09/25 15:54:24;;;;;;;3.70;1.92;;;25.30;94.80;;;;;;6735988;87;20788;-73
2021/09/25 16:04:27;;;;;;;3.78;2.12;;;24.90;95.40;;;;;;6736729;87;20181;-74
2021/09/25 16:14:28;;;;;;;;;;;24.50;96.80;;;;;;6739538;88;20177;-74
2021/09/25 16:24:28;;;;;;;10.27;7.03;;;24.10;97.90;;;;;;6735171;87;20081;-74
2021/09/25 16:34:30;;;;;;;8.73;6.63;;;23.80;98.70;;;;;;6736736;88;20285;-74
2021/09/25 16:44:31;;;;;;;8.07;4.43;;;23.50;98.80;;;;;;6737474;88;21044;-74
2021/09/25 16:54:32;;;;;;;6.40;3.80;;;23.40;98.70;;;;;;6736961;88;20216;-75
2021/09/25 17:04:32;;;;;;;7.68;4.43;;;23.20;99.20;;;;;;6738859;88;20233;-73
2021/09/25 17:14:33;;;;;;;6.80;4.10;;;22.60;99.90;;;;;;6737165;88;20307;-74
2021/09/25 17:24:34;;;;;;;5.10;2.58;;;22.10;99.90;;;;;;6738751;77;20205;-73
2021/09/25 17:34:35;;;;;;;4.37;2.92;;;21.50;99.90;;;;;;6752970;87;20250;-73
2021/09/25 17:44:36;;;;;;;5.93;3.20;;;21.10;99.90;;;;;;6754000;87;20188;-76
2021/09/25 17:54:36;;;;;;;7.70;3.70;;;20.80;99.90;;;;;;6753585;87;20184;-76
2021/09/25 18:04:37;;;;;;;13.88;6.25;;;20.30;99.90;;;;;;6753412;87;22740;-77
2021/09/25 18:14:38;;;;;;;8.85;4.93;;;20.10;99.90;;;;;;6753493;88;20192;-78
2021/09/25 18:24:38;;;;;;;8.85;5.07;;;19.30;99.90;;;;;;6755624;87;20604;-78
2021/09/25 18:34:39;;;;;;;9.35;5.85;;;18.90;99.90;;;;;;6735129;88;20347;-78
2021/09/25 18:44:39;;;;;;;12.80;7.07;;;18.60;99.90;;;;;;6737107;88;20315;-78
2021/09/25 18:54:40;;;;;;;15.85;9.77;;;18.30;99.90;;;;;;6738484;88;20306;-80
2021/09/25 19:04:40;;;;;;;14.48;7.57;;;18.20;99.90;;;;;;6740975;88;20257;-79
2021/09/25 19:14:41;;;;;;;13.27;7.40;;;18.00;99.90;;;;;;6741564;88;20217;-79
2021/09/25 19:24:42;;;;;;;12.98;6.90;;;17.70;99.90;;;;;;6741226;88;21022;-78
2021/09/25 19:34:43;;;;;;;12.45;6.40;;;17.30;99.90;;;;;;6739443;88;20199;-78
2021/09/25 19:44:43;;;;;;;14.10;7.03;;;17.50;99.90;;;;;;6740484;88;20204;-80
2021/09/25 19:54:44;;;;;;;10.70;6.68;;;17.20;99.90;;;;;;6739665;88;20212;-79
2021/09/25 20:04:44;;;;;;;12.95;7.37;;;17.10;99.90;;;;;;6741872;88;20180;-79
2021/09/25 20:14:49;;;;;;;11.60;7.00;;;16.60;99.90;;;;;;6757526;88;20208;-79
2021/09/25 20:24:50;;;;;;;10.67;7.17;;;16.60;99.90;;;;;;6757102;87;20191;-77
2021/09/25 20:34:50;;;;;;;10.68;6.32;;;16.40;99.90;;;;;;6754543;87;20383;-79
2021/09/25 20:44:51;;;;;;;9.98;6.35;;;16.30;99.90;;;;;;6737291;88;20380;-78
2021/09/25 20:54:52;;;;;;;12.02;6.35;;;16.20;99.90;;;;;;6751915;88;20304;-77
2021/09/25 21:04:53;;;;;;;9.25;5.80;;;15.90;99.90;;;;;;6752329;88;20232;-79
2021/09/25 21:14:53;;;;;;;9.25;5.75;;;15.90;99.90;;;;;;6749720;88;20212;-79
2021/09/25 21:24:54;;;;;;;8.43;5.30;;;15.90;99.90;;;;;;6752724;87;20203;-79
2021/09/25 21:34:54;;;;;;;8.57;5.45;;;16.00;99.90;;;;;;6753456;88;20493;-79
2021/09/25 21:44:55;;;;;;;9.23;4.93;;;16.30;99.90;;;;;;6770920;87;20695;-78
2021/09/25 21:54:59;;;;;;;7.50;4.87;;;16.60;99.90;;;;;;6749945;87;20283;-77
2021/09/25 22:05:00;;;;;;;7.93;5.00;;;16.50;99.90;;;;;;6753563;87;20203;-77
2021/09/25 22:15:01;;;;;;;8.97;5.30;;;16.50;99.90;;;;;;6747714;87;20763;-76
2021/09/25 22:25:03;;;;;;;8.15;4.32;;;16.60;99.90;;;;;;6749331;87;20213;-77
2021/09/25 22:35:11;;;;;;;8.38;5.03;;;16.60;99.90;;;;;;6750536;87;20197;-78
2021/09/25 22:45:16;;;;;;;8.05;4.35;;;16.80;99.90;;;;;;6747714;87;21104;-76
2021/09/25 22:55:17;;;;;;;8.20;4.70;;;16.90;99.90;;;;;;6750000;87;20168;-78
2021/09/25 23:05:18;;;;;;;6.62;4.20;;;17.10;99.90;;;;;;6746450;87;20261;-77
2021/09/25 23:15:18;;;;;;;6.45;3.97;;;17.40;99.90;;;;;;6753740;87;20289;-76
2021/09/25 23:25:19;;;;;;;6.47;3.85;;;17.40;99.90;;;;;;6751029;87;20215;-78
2021/09/25 23:35:20;;;;;;;6.37;3.97;;;17.50;99.90;;;;;;6751374;87;20173;-77
2021/09/25 23:45:20;;;;;;;6.45;3.70;;;17.60;99.90;;;;;;6767961;87;20974;-77
2021/09/25 23:55:21;;;;;;;6.93;3.80;;;17.80;99.90;;;;;;6770003;87;20651;-78
